sensor_id;sensor_type;location;lat;lon;timestamp;P1;durP1;ratioP1;P2;durP2;ratioP2
13568;SDS011;6856;51.460;7.158;2022-07-29T00:22:41;3.17;;;0.83;;
13568;SDS011;6856;51.460;7.158;2022-07-29T00:25:16;2.97;;;1.10;;
13568;SDS011;6856;51.460;7.158;2022-07-29T00:27:50;1.53;;;0.90;;
13568;SDS011;6856;51.460;7.158;2022-07-29T00:30:24;4.90;;;1.20;;
13568;SDS011;6856;51.460;7.158;2022-07-29T00:32:59;2.23;;;1.00;;
13568;SDS011;6856;51.460;7.158;2022-07-29T00:35:39;2.60;;;0.90;;
13568;SDS011;6856;51.460;7.158;2022-07-29T00:38:17;2.80;;;1.20;;
13568;SDS011;6856;51.460;7.158;2022-07-29T00:40:54;2.87;;;1.20;;
13568;SDS011;6856;51.460;7.158;2022-07-29T00:43:28;1.37;;;1.00;;
13568;SDS011;6856;51.460;7.158;2022-07-29T00:46:02;2.57;;;1.10;;
13568;SDS011;6856;51.460;7.158;2022-07-29T00:48:36;1.80;;;0.90;;
13568;SDS011;6856;51.460;7.158;2022-07-29T00:51:14;2.00;;;1.00;;
13568;SDS011;6856;51.460;7.158;2022-07-29T00:53:50;1.70;;;1.00;;
13568;SDS011;6856;51.460;7.158;2022-07-29T00:56:24;2.23;;;0.90;;
13568;SDS011;6856;51.460;7.158;2022-07-29T00:58:59;1.83;;;1.00;;
13568;SDS011;6856;51.460;7.158;2022-07-29T01:01:33;1.67;;;0.90;;
13568;SDS011;6856;51.460;7.158;2022-07-29T01:04:07;1.93;;;1.00;;
13568;SDS011;6856;51.460;7.158;2022-07-29T01:06:41;2.80;;;1.00;;
13568;SDS011;6856;51.460;7.158;2022-07-29T01:09:18;3.67;;;1.20;;
13568;SDS011;6856;51.460;7.158;2022-07-29T01:12:13;1.77;;;1.03;;
13568;SDS011;6856;51.460;7.158;2022-07-29T01:14:52;3.03;;;1.30;;
13568;SDS011;6856;51.460;7.158;2022-07-29T01:17:29;3.57;;;1.13;;
13568;SDS011;6856;51.460;7.158;2022-07-29T01:20:24;2.30;;;0.80;;
13568;SDS011;6856;51.460;7.158;2022-07-29T01:26:33;1.50;;;1.00;;
13568;SDS011;6856;51.460;7.158;2022-07-29T01:29:19;5.20;;;1.20;;
13568;SDS011;6856;51.460;7.158;2022-07-29T01:32:11;4.47;;;1.40;;
13568;SDS011;6856;51.460;7.158;2022-07-29T01:35:02;3.23;;;1.10;;
13568;SDS011;6856;51.460;7.158;2022-07-29T01:37:44;2.43;;;1.23;;
13568;SDS011;6856;51.460;7.158;2022-07-29T01:40:25;1.97;;;0.90;;
13568;SDS011;6856;51.460;7.158;2022-07-29T01:43:16;1.83;;;1.00;;
13568;SDS011;6856;51.460;7.158;2022-07-29T01:45:58;1.90;;;1.00;;
13568;SDS011;6856;51.460;7.158;2022-07-29T01:48:37;2.70;;;1.20;;
13568;SDS011;6856;51.460;7.158;2022-07-29T01:51:24;1.97;;;1.10;;
13568;SDS011;6856;51.460;7.158;2022-07-29T01:54:06;1.57;;;0.83;;
13568;SDS011;6856;51.460;7.158;2022-07-29T01:56:48;2.03;;;1.10;;
13568;SDS011;6856;51.460;7.158;2022-07-29T01:59:32;3.17;;;1.00;;
13568;SDS011;6856;51.460;7.158;2022-07-29T02:02:10;1.83;;;1.00;;
13568;SDS011;6856;51.460;7.158;2022-07-29T02:04:49;1.33;;;0.87;;
13568;SDS011;6856;51.460;7.158;2022-07-29T02:07:26;1.67;;;1.00;;
13568;SDS011;6856;51.460;7.158;2022-07-29T02:10:07;2.47;;;1.10;;
13568;SDS011;6856;51.460;7.158;2022-07-29T02:12:43;1.07;;;0.90;;
13568;SDS011;6856;51.460;7.158;2022-07-29T02:15:21;3.10;;;1.10;;
13568;SDS011;6856;51.460;7.158;2022-07-29T02:17:59;1.53;;;0.97;;
13568;SDS011;6856;51.460;7.158;2022-07-29T02:20:39;1.90;;;1.00;;
13568;SDS011;6856;51.460;7.158;2022-07-29T02:23:18;2.23;;;1.00;;
13568;SDS011;6856;51.460;7.158;2022-07-29T02:25:56;2.37;;;1.07;;
13568;SDS011;6856;51.460;7.158;2022-07-29T02:28:32;1.33;;;1.03;;
13568;SDS011;6856;51.460;7.158;2022-07-29T02:31:07;1.57;;;0.90;;
13568;SDS011;6856;51.460;7.158;2022-07-29T02:33:44;2.20;;;1.00;;
13568;SDS011;6856;51.460;7.158;2022-07-29T02:36:21;3.30;;;1.13;;
13568;SDS011;6856;51.460;7.158;2022-07-29T02:38:57;3.83;;;1.20;;
13568;SDS011;6856;51.460;7.158;2022-07-29T02:41:35;1.03;;;0.83;;
13568;SDS011;6856;51.460;7.158;2022-07-29T02:44:17;4.80;;;1.10;;
13568;SDS011;6856;51.460;7.158;2022-07-29T02:46:55;2.10;;;1.10;;
13568;SDS011;6856;51.460;7.158;2022-07-29T02:49:42;3.33;;;0.97;;
13568;SDS011;6856;51.460;7.158;2022-07-29T02:52:29;1.93;;;0.80;;
13568;SDS011;6856;51.460;7.158;2022-07-29T02:55:15;2.57;;;1.10;;
13568;SDS011;6856;51.460;7.158;2022-07-29T02:57:57;2.07;;;0.90;;
13568;SDS011;6856;51.460;7.158;2022-07-29T03:00:37;2.63;;;1.10;;
13568;SDS011;6856;51.460;7.158;2022-07-29T03:03:15;3.37;;;1.10;;
13568;SDS011;6856;51.460;7.158;2022-07-29T03:05:53;0.97;;;0.80;;
13568;SDS011;6856;51.460;7.158;2022-07-29T03:08:30;2.90;;;1.00;;
13568;SDS011;6856;51.460;7.158;2022-07-29T03:11:06;2.03;;;1.07;;
13568;SDS011;6856;51.460;7.158;2022-07-29T03:13:42;2.23;;;0.87;;
13568;SDS011;6856;51.460;7.158;2022-07-29T03:16:17;2.37;;;1.17;;
13568;SDS011;6856;51.460;7.158;2022-07-29T03:18:54;3.47;;;1.40;;
13568;SDS011;6856;51.460;7.158;2022-07-29T03:21:30;1.33;;;0.80;;
13568;SDS011;6856;51.460;7.158;2022-07-29T03:24:04;1.83;;;1.10;;
13568;SDS011;6856;51.460;7.158;2022-07-29T03:26:43;2.27;;;1.20;;
13568;SDS011;6856;51.460;7.158;2022-07-29T03:29:17;2.47;;;1.10;;
13568;SDS011;6856;51.460;7.158;2022-07-29T03:31:52;1.90;;;1.00;;
13568;SDS011;6856;51.460;7.158;2022-07-29T03:34:31;1.40;;;1.10;;
13568;SDS011;6856;51.460;7.158;2022-07-29T03:37:06;1.87;;;1.00;;
13568;SDS011;6856;51.460;7.158;2022-07-29T03:39:41;5.37;;;1.30;;
13568;SDS011;6856;51.460;7.158;2022-07-29T03:42:20;1.63;;;0.97;;
13568;SDS011;6856;51.460;7.158;2022-07-29T03:45:06;4.90;;;1.40;;
13568;SDS011;6856;51.460;7.158;2022-07-29T03:47:45;1.87;;;1.10;;
13568;SDS011;6856;51.460;7.158;2022-07-29T03:50:31;3.17;;;1.20;;
13568;SDS011;6856;51.460;7.158;2022-07-29T03:53:09;3.23;;;1.13;;
13568;SDS011;6856;51.460;7.158;2022-07-29T03:55:46;2.27;;;1.10;;
13568;SDS011;6856;51.460;7.158;2022-07-29T03:58:25;1.93;;;1.20;;
13568;SDS011;6856;51.460;7.158;2022-07-29T04:01:06;3.60;;;1.10;;
13568;SDS011;6856;51.460;7.158;2022-07-29T04:03:41;2.73;;;1.10;;
13568;SDS011;6856;51.460;7.158;2022-07-29T04:06:17;2.27;;;1.10;;
13568;SDS011;6856;51.460;7.158;2022-07-29T04:08:53;2.63;;;1.00;;
13568;SDS011;6856;51.460;7.158;2022-07-29T04:11:27;1.33;;;0.77;;
13568;SDS011;6856;51.460;7.158;2022-07-29T04:14:01;2.07;;;1.00;;
13568;SDS011;6856;51.460;7.158;2022-07-29T04:16:37;1.63;;;1.23;;
13568;SDS011;6856;51.460;7.158;2022-07-29T04:19:10;1.47;;;0.90;;
13568;SDS011;6856;51.460;7.158;2022-07-29T04:21:44;2.73;;;1.10;;
13568;SDS011;6856;51.460;7.158;2022-07-29T04:24:20;1.70;;;1.10;;
13568;SDS011;6856;51.460;7.158;2022-07-29T04:26:54;3.23;;;1.17;;
13568;SDS011;6856;51.460;7.158;2022-07-29T04:29:29;2.13;;;0.80;;
13568;SDS011;6856;51.460;7.158;2022-07-29T04:32:03;3.63;;;1.10;;
13568;SDS011;6856;51.460;7.158;2022-07-29T04:34:41;1.83;;;1.13;;
13568;SDS011;6856;51.460;7.158;2022-07-29T04:37:17;2.20;;;0.80;;
13568;SDS011;6856;51.460;7.158;2022-07-29T04:39:53;2.80;;;1.17;;
13568;SDS011;6856;51.460;7.158;2022-07-29T04:42:28;2.03;;;1.20;;
13568;SDS011;6856;51.460;7.158;2022-07-29T04:45:02;2.77;;;1.33;;
13568;SDS011;6856;51.460;7.158;2022-07-29T04:47:38;1.23;;;1.00;;
13568;SDS011;6856;51.460;7.158;2022-07-29T04:50:13;2.17;;;1.07;;
13568;SDS011;6856;51.460;7.158;2022-07-29T04:52:48;2.73;;;1.30;;
13568;SDS011;6856;51.460;7.158;2022-07-29T04:55:24;2.40;;;1.00;;
13568;SDS011;6856;51.460;7.158;2022-07-29T04:57:58;2.63;;;1.10;;
13568;SDS011;6856;51.460;7.158;2022-07-29T05:00:33;3.00;;;1.03;;
13568;SDS011;6856;51.460;7.158;2022-07-29T05:03:08;2.03;;;0.97;;
13568;SDS011;6856;51.460;7.158;2022-07-29T05:05:42;2.00;;;1.07;;
13568;SDS011;6856;51.460;7.158;2022-07-29T05:08:17;1.83;;;1.00;;
13568;SDS011;6856;51.460;7.158;2022-07-29T05:10:53;1.80;;;1.17;;
13568;SDS011;6856;51.460;7.158;2022-07-29T05:13:33;2.23;;;1.30;;
13568;SDS011;6856;51.460;7.158;2022-07-29T05:16:17;2.23;;;1.40;;
13568;SDS011;6856;51.460;7.158;2022-07-29T05:18:51;6.80;;;1.30;;
13568;SDS011;6856;51.460;7.158;2022-07-29T05:21:25;2.30;;;1.20;;
13568;SDS011;6856;51.460;7.158;2022-07-29T05:24:05;3.13;;;1.23;;
13568;SDS011;6856;51.460;7.158;2022-07-29T05:26:42;2.40;;;1.20;;
13568;SDS011;6856;51.460;7.158;2022-07-29T05:29:17;2.47;;;1.20;;
13568;SDS011;6856;51.460;7.158;2022-07-29T05:32:11;1.43;;;1.03;;
13568;SDS011;6856;51.460;7.158;2022-07-29T05:34:46;1.80;;;1.20;;
13568;SDS011;6856;51.460;7.158;2022-07-29T05:37:22;1.53;;;1.13;;
13568;SDS011;6856;51.460;7.158;2022-07-29T05:39:56;2.17;;;1.50;;
13568;SDS011;6856;51.460;7.158;2022-07-29T05:42:32;2.63;;;1.10;;
13568;SDS011;6856;51.460;7.158;2022-07-29T05:45:06;4.97;;;1.43;;
13568;SDS011;6856;51.460;7.158;2022-07-29T05:47:43;1.70;;;1.00;;
13568;SDS011;6856;51.460;7.158;2022-07-29T05:50:17;3.37;;;1.30;;
13568;SDS011;6856;51.460;7.158;2022-07-29T05:52:54;3.70;;;1.30;;
13568;SDS011;6856;51.460;7.158;2022-07-29T05:55:28;2.40;;;1.20;;
13568;SDS011;6856;51.460;7.158;2022-07-29T05:58:04;3.40;;;1.30;;
13568;SDS011;6856;51.460;7.158;2022-07-29T06:00:40;2.60;;;1.20;;
13568;SDS011;6856;51.460;7.158;2022-07-29T06:03:14;2.60;;;1.10;;
13568;SDS011;6856;51.460;7.158;2022-07-29T06:05:49;2.53;;;1.27;;
13568;SDS011;6856;51.460;7.158;2022-07-29T06:08:23;1.30;;;1.13;;
13568;SDS011;6856;51.460;7.158;2022-07-29T06:10:57;1.57;;;1.17;;
13568;SDS011;6856;51.460;7.158;2022-07-29T06:13:34;3.43;;;1.37;;
13568;SDS011;6856;51.460;7.158;2022-07-29T06:16:09;3.33;;;1.10;;
13568;SDS011;6856;51.460;7.158;2022-07-29T06:18:59;3.27;;;1.20;;
13568;SDS011;6856;51.460;7.158;2022-07-29T06:21:36;2.23;;;1.13;;
13568;SDS011;6856;51.460;7.158;2022-07-29T06:24:16;2.47;;;1.33;;
13568;SDS011;6856;51.460;7.158;2022-07-29T06:26:51;1.90;;;1.30;;
13568;SDS011;6856;51.460;7.158;2022-07-29T06:29:27;3.47;;;1.40;;
13568;SDS011;6856;51.460;7.158;2022-07-29T06:32:02;1.97;;;1.20;;
13568;SDS011;6856;51.460;7.158;2022-07-29T06:34:37;2.47;;;1.20;;
13568;SDS011;6856;51.460;7.158;2022-07-29T06:37:15;2.13;;;1.37;;
13568;SDS011;6856;51.460;7.158;2022-07-29T06:39:50;3.63;;;1.30;;
13568;SDS011;6856;51.460;7.158;2022-07-29T06:42:47;3.20;;;1.10;;
13568;SDS011;6856;51.460;7.158;2022-07-29T06:45:24;2.70;;;1.40;;
13568;SDS011;6856;51.460;7.158;2022-07-29T06:48:01;2.43;;;1.13;;
13568;SDS011;6856;51.460;7.158;2022-07-29T06:50:36;2.37;;;1.40;;
13568;SDS011;6856;51.460;7.158;2022-07-29T06:53:11;2.63;;;1.40;;
13568;SDS011;6856;51.460;7.158;2022-07-29T06:55:46;1.17;;;1.07;;
13568;SDS011;6856;51.460;7.158;2022-07-29T06:58:20;1.97;;;1.30;;
13568;SDS011;6856;51.460;7.158;2022-07-29T07:00:56;2.93;;;1.10;;
13568;SDS011;6856;51.460;7.158;2022-07-29T07:03:35;4.17;;;1.40;;
13568;SDS011;6856;51.460;7.158;2022-07-29T07:06:10;3.43;;;1.23;;
13568;SDS011;6856;51.460;7.158;2022-07-29T07:08:45;2.10;;;1.10;;
13568;SDS011;6856;51.460;7.158;2022-07-29T07:11:20;2.93;;;1.30;;
13568;SDS011;6856;51.460;7.158;2022-07-29T07:13:54;3.17;;;1.40;;
13568;SDS011;6856;51.460;7.158;2022-07-29T07:16:35;3.47;;;1.53;;
13568;SDS011;6856;51.460;7.158;2022-07-29T07:19:10;3.57;;;1.70;;
13568;SDS011;6856;51.460;7.158;2022-07-29T07:21:44;2.57;;;1.10;;
13568;SDS011;6856;51.460;7.158;2022-07-29T07:24:19;1.90;;;1.10;;
13568;SDS011;6856;51.460;7.158;2022-07-29T07:26:55;2.20;;;1.30;;
13568;SDS011;6856;51.460;7.158;2022-07-29T07:29:30;2.83;;;1.20;;
13568;SDS011;6856;51.460;7.158;2022-07-29T07:32:06;1.80;;;1.20;;
13568;SDS011;6856;51.460;7.158;2022-07-29T07:34:40;3.13;;;1.50;;
13568;SDS011;6856;51.460;7.158;2022-07-29T07:37:16;1.97;;;1.27;;
13568;SDS011;6856;51.460;7.158;2022-07-29T07:39:51;2.17;;;1.23;;
13568;SDS011;6856;51.460;7.158;2022-07-29T07:42:26;2.17;;;1.03;;
13568;SDS011;6856;51.460;7.158;2022-07-29T07:45:01;2.20;;;1.40;;
13568;SDS011;6856;51.460;7.158;2022-07-29T07:47:46;1.83;;;1.10;;
13568;SDS011;6856;51.460;7.158;2022-07-29T07:50:24;2.80;;;1.40;;
13568;SDS011;6856;51.460;7.158;2022-07-29T07:52:59;1.83;;;1.27;;
13568;SDS011;6856;51.460;7.158;2022-07-29T07:55:38;2.53;;;1.40;;
13568;SDS011;6856;51.460;7.158;2022-07-29T07:58:33;3.00;;;1.23;;
13568;SDS011;6856;51.460;7.158;2022-07-29T08:01:08;3.43;;;1.60;;
13568;SDS011;6856;51.460;7.158;2022-07-29T08:03:44;2.00;;;1.13;;
13568;SDS011;6856;51.460;7.158;2022-07-29T08:06:19;2.43;;;1.07;;
13568;SDS011;6856;51.460;7.158;2022-07-29T08:08:56;2.30;;;1.20;;
13568;SDS011;6856;51.460;7.158;2022-07-29T08:11:56;2.60;;;1.33;;
13568;SDS011;6856;51.460;7.158;2022-07-29T08:14:34;2.27;;;1.50;;
13568;SDS011;6856;51.460;7.158;2022-07-29T08:17:10;1.90;;;1.23;;
13568;SDS011;6856;51.460;7.158;2022-07-29T08:19:46;1.70;;;1.30;;
13568;SDS011;6856;51.460;7.158;2022-07-29T08:22:21;3.90;;;1.50;;
13568;SDS011;6856;51.460;7.158;2022-07-29T08:24:55;5.27;;;1.33;;
13568;SDS011;6856;51.460;7.158;2022-07-29T08:27:30;2.47;;;1.23;;
13568;SDS011;6856;51.460;7.158;2022-07-29T08:30:14;4.27;;;1.27;;
13568;SDS011;6856;51.460;7.158;2022-07-29T08:32:48;1.87;;;1.50;;
13568;SDS011;6856;51.460;7.158;2022-07-29T08:35:27;5.17;;;1.53;;
13568;SDS011;6856;51.460;7.158;2022-07-29T08:38:06;3.10;;;1.33;;
13568;SDS011;6856;51.460;7.158;2022-07-29T08:40:41;2.30;;;1.40;;
13568;SDS011;6856;51.460;7.158;2022-07-29T08:43:16;3.67;;;1.60;;
13568;SDS011;6856;51.460;7.158;2022-07-29T08:45:51;2.57;;;1.43;;
13568;SDS011;6856;51.460;7.158;2022-07-29T08:48:25;2.22;;;1.45;;
13568;SDS011;6856;51.460;7.158;2022-07-29T08:51:01;3.37;;;1.50;;
13568;SDS011;6856;51.460;7.158;2022-07-29T08:53:35;3.45;;;1.42;;
13568;SDS011;6856;51.460;7.158;2022-07-29T08:56:13;5.03;;;1.40;;
13568;SDS011;6856;51.460;7.158;2022-07-29T08:58:49;2.30;;;1.40;;
13568;SDS011;6856;51.460;7.158;2022-07-29T09:01:25;4.85;;;1.60;;
13568;SDS011;6856;51.460;7.158;2022-07-29T09:04:13;2.83;;;1.47;;
13568;SDS011;6856;51.460;7.158;2022-07-29T09:06:51;2.97;;;1.17;;
13568;SDS011;6856;51.460;7.158;2022-07-29T09:09:27;2.67;;;1.30;;
13568;SDS011;6856;51.460;7.158;2022-07-29T09:12:02;5.90;;;1.67;;
13568;SDS011;6856;51.460;7.158;2022-07-29T09:14:42;2.70;;;1.07;;
13568;SDS011;6856;51.460;7.158;2022-07-29T09:17:18;4.87;;;1.97;;
13568;SDS011;6856;51.460;7.158;2022-07-29T09:20:13;3.67;;;1.60;;
13568;SDS011;6856;51.460;7.158;2022-07-29T09:22:52;3.07;;;1.50;;
13568;SDS011;6856;51.460;7.158;2022-07-29T09:25:32;2.93;;;1.67;;
13568;SDS011;6856;51.460;7.158;2022-07-29T09:28:07;4.07;;;1.80;;
13568;SDS011;6856;51.460;7.158;2022-07-29T09:30:49;3.17;;;1.67;;
13568;SDS011;6856;51.460;7.158;2022-07-29T09:33:31;4.80;;;1.90;;
13568;SDS011;6856;51.460;7.158;2022-07-29T09:36:09;4.80;;;2.10;;
13568;SDS011;6856;51.460;7.158;2022-07-29T09:38:45;4.70;;;1.67;;
13568;SDS011;6856;51.460;7.158;2022-07-29T09:41:43;2.33;;;1.53;;
13568;SDS011;6856;51.460;7.158;2022-07-29T09:44:20;3.23;;;1.57;;
13568;SDS011;6856;51.460;7.158;2022-07-29T09:46:56;4.37;;;1.57;;
13568;SDS011;6856;51.460;7.158;2022-07-29T09:49:50;3.40;;;1.47;;
13568;SDS011;6856;51.460;7.158;2022-07-29T09:52:27;2.90;;;1.20;;
13568;SDS011;6856;51.460;7.158;2022-07-29T09:55:08;4.00;;;1.50;;
13568;SDS011;6856;51.460;7.158;2022-07-29T09:57:49;2.40;;;1.57;;
13568;SDS011;6856;51.460;7.158;2022-07-29T10:00:24;4.00;;;1.50;;
13568;SDS011;6856;51.460;7.158;2022-07-29T10:02:58;2.20;;;1.50;;
13568;SDS011;6856;51.460;7.158;2022-07-29T10:05:34;3.47;;;1.93;;
13568;SDS011;6856;51.460;7.158;2022-07-29T10:08:09;3.93;;;1.93;;
13568;SDS011;6856;51.460;7.158;2022-07-29T22:27:39;3.10;;;2.20;;
13568;SDS011;6856;51.460;7.158;2022-07-29T22:30:13;4.17;;;2.90;;
13568;SDS011;6856;51.460;7.158;2022-07-29T22:32:47;3.53;;;2.67;;
13568;SDS011;6856;51.460;7.158;2022-07-29T22:35:21;4.37;;;2.83;;
13568;SDS011;6856;51.460;7.158;2022-07-29T22:37:54;2.67;;;2.20;;
13568;SDS011;6856;51.460;7.158;2022-07-29T22:40:28;4.83;;;2.83;;
13568;SDS011;6856;51.460;7.158;2022-07-29T22:43:05;3.57;;;2.33;;
13568;SDS011;6856;51.460;7.158;2022-07-29T22:45:39;4.73;;;2.70;;
13568;SDS011;6856;51.460;7.158;2022-07-29T22:48:13;3.83;;;2.33;;
13568;SDS011;6856;51.460;7.158;2022-07-29T22:50:47;3.33;;;2.27;;
13568;SDS011;6856;51.460;7.158;2022-07-29T22:53:20;3.77;;;2.47;;
13568;SDS011;6856;51.460;7.158;2022-07-29T22:55:54;3.43;;;2.33;;
13568;SDS011;6856;51.460;7.158;2022-07-29T22:58:29;3.10;;;2.40;;
13568;SDS011;6856;51.460;7.158;2022-07-29T23:01:02;5.27;;;2.80;;
13568;SDS011;6856;51.460;7.158;2022-07-29T23:03:39;3.53;;;2.50;;
13568;SDS011;6856;51.460;7.158;2022-07-29T23:06:21;3.63;;;2.10;;
13568;SDS011;6856;51.460;7.158;2022-07-29T23:08:55;3.77;;;2.50;;
13568;SDS011;6856;51.460;7.158;2022-07-29T23:11:28;4.07;;;2.90;;
13568;SDS011;6856;51.460;7.158;2022-07-29T23:14:03;3.33;;;2.50;;
13568;SDS011;6856;51.460;7.158;2022-07-29T23:16:39;5.93;;;2.87;;
13568;SDS011;6856;51.460;7.158;2022-07-29T23:19:14;4.37;;;3.07;;
13568;SDS011;6856;51.460;7.158;2022-07-29T23:21:47;3.97;;;2.10;;
13568;SDS011;6856;51.460;7.158;2022-07-29T23:24:21;3.10;;;2.27;;
13568;SDS011;6856;51.460;7.158;2022-07-29T23:26:54;5.83;;;2.50;;
13568;SDS011;6856;51.460;7.158;2022-07-29T23:29:30;3.13;;;2.30;;
13568;SDS011;6856;51.460;7.158;2022-07-29T23:32:07;4.13;;;2.23;;
13568;SDS011;6856;51.460;7.158;2022-07-29T23:34:41;3.80;;;2.70;;
13568;SDS011;6856;51.460;7.158;2022-07-29T23:37:14;4.70;;;2.57;;
13568;SDS011;6856;51.460;7.158;2022-07-29T23:39:48;3.47;;;2.50;;
13568;SDS011;6856;51.460;7.158;2022-07-29T23:42:21;4.47;;;2.60;;
13568;SDS011;6856;51.460;7.158;2022-07-29T23:44:56;3.73;;;2.70;;
13568;SDS011;6856;51.460;7.158;2022-07-29T23:47:30;4.20;;;2.53;;
13568;SDS011;6856;51.460;7.158;2022-07-29T23:50:04;3.03;;;2.40;;
13568;SDS011;6856;51.460;7.158;2022-07-29T23:52:38;3.37;;;2.60;;
13568;SDS011;6856;51.460;7.158;2022-07-29T23:55:12;3.77;;;2.50;;
13568;SDS011;6856;51.460;7.158;2022-07-29T23:58:07;3.00;;;2.13;;
